Time;durP1;ratioP1;P1;durP2;ratioP2;P2;SDS_P1;SDS_P2;PMS_P1;PMS_P2;Temp;Humidity;BMP_temperature;BMP_pressure;BME280_temperature;BME280_humidity;BME280_pressure;Samples;Min_cycle;Max_cycle;Signal;HPM_P1;HPM_P2
2023/01/04 13:20:13;;;;;;;1.65;0.50;;;;;;;10.15;75.68;101100.91;5057159;28;20886;-76
2023/01/04 13:22:49;;;;;;;5.90;0.50;;;;;;;10.20;75.09;101096.47;5045986;28;20877;-76
2023/01/04 13:25:17;;;;;;;0.32;0.32;;;;;;;10.30;74.99;101096.78;5067277;28;20422;-76
2023/01/04 13:28:00;;;;;;;3.20;0.40;;;;;;;10.49;74.14;101094.84;5062861;28;20404;-76
2023/01/04 13:30:37;;;;;;;1.80;0.40;;;;;;;10.53;74.05;101079.78;5047131;28;20537;-75
2023/01/04 13:33:20;;;;;;;3.15;0.70;;;;;;;10.62;73.32;101089.25;5040458;28;20404;-75
2023/01/04 13:49:16;;;;;;;0.60;0.55;;;;;;;10.94;72.39;101068.13;5051745;28;20418;-77
2023/01/04 13:51:41;;;;;;;3.40;0.77;;;;;;;10.98;72.18;101077.44;5050679;28;20402;-77
2023/01/04 13:54:24;;;;;;;1.10;0.57;;;;;;;11.00;71.94;101064.47;5061624;28;20388;-76
2023/01/04 13:56:51;;;;;;;1.17;0.50;;;;;;;11.02;72.00;101064.25;5056303;28;20488;-76
2023/01/04 13:59:19;;;;;;;1.40;0.70;;;;;;;11.12;71.86;101061.81;5044609;28;20891;-75
2023/01/04 14:01:49;;;;;;;0.70;0.60;;;;;;;11.17;71.73;101054.59;5041724;28;20719;-75
2023/01/04 14:04:24;;;;;;;2.45;0.63;;;;;;;11.13;71.53;101061.53;5065444;28;20393;-76
2023/01/04 14:06:51;;;;;;;0.80;0.47;;;;;;;11.13;71.33;101071.59;5065143;28;20953;-76
2023/01/04 14:09:21;;;;;;;0.60;0.40;;;;;;;11.11;71.37;101062.84;5041178;28;20881;-76
2023/01/04 14:12:00;;;;;;;2.72;0.60;;;;;;;11.09;71.66;101064.97;5038617;28;20396;-75
2023/01/04 14:14:44;;;;;;;0.50;0.50;;;;;;;11.09;71.79;101056.84;5041139;28;20377;-75
2023/01/04 14:17:09;;;;;;;1.38;0.65;;;;;;;11.12;71.53;101051.78;5048293;28;20421;-75
2023/01/04 14:19:46;;;;;;;3.20;0.70;;;;;;;11.11;71.80;101047.41;5057222;28;20420;-75
2023/01/04 14:22:36;;;;;;;1.20;0.60;;;;;;;11.07;71.83;101046.22;5054440;28;20431;-75
2023/01/04 14:25:33;;;;;;;1.27;0.50;;;;;;;11.01;71.95;101038.19;5056962;28;20409;-75
2023/01/04 14:28:18;;;;;;;0.93;0.50;;;;;;;10.96;72.38;101043.50;5054605;28;20402;-74
2023/01/04 14:30:50;;;;;;;0.40;0.40;;;;;;;10.96;72.09;101040.78;5051830;28;20401;-75
2023/01/04 14:33:38;;;;;;;0.85;0.60;;;;;;;10.94;72.24;101054.56;5054589;28;20410;-76
2023/01/04 14:36:09;;;;;;;0.77;0.75;;;;;;;10.94;72.41;101060.81;5049153;28;20396;-75
2023/01/04 14:38:42;;;;;;;3.30;0.60;;;;;;;10.95;72.31;101056.22;5040515;28;20494;-75
2023/01/04 14:41:16;;;;;;;1.15;0.43;;;;;;;11.05;72.10;101072.75;5044508;28;20425;-75
2023/01/04 14:44:01;;;;;;;1.02;0.50;;;;;;;11.09;71.65;101075.84;5047842;28;20546;-74
2023/01/04 14:46:29;;;;;;;0.85;0.70;;;;;;;11.00;72.11;101058.25;5057203;28;20408;-76
2023/01/04 14:48:54;;;;;;;2.10;0.32;;;;;;;10.96;72.25;101055.19;5062702;28;21053;-74
2023/01/04 14:51:45;;;;;;;0.50;0.50;;;;;;;10.97;72.23;101062.22;5046495;28;20919;-75
2023/01/04 14:54:12;;;;;;;1.52;0.60;;;;;;;10.98;72.36;101058.47;5038032;28;20444;-74
2023/01/04 14:56:38;;;;;;;0.50;0.50;;;;;;;10.95;72.64;101053.50;5050578;28;20404;-74
2023/01/04 14:59:04;;;;;;;1.75;0.50;;;;;;;10.94;72.51;101055.41;5045050;28;20820;-74
2023/01/04 15:01:29;;;;;;;0.75;0.45;;;;;;;10.99;72.49;101049.28;5033560;28;20406;-74
2023/01/04 15:03:54;;;;;;;1.57;0.40;;;;;;;10.98;72.50;101054.94;5055539;28;20435;-74
2023/01/04 15:06:20;;;;;;;1.60;0.80;;;;;;;10.95;72.64;101050.81;5071999;28;20487;-74
2023/01/04 15:08:45;;;;;;;3.73;0.93;;;;;;;10.99;72.69;101032.19;5036826;28;20749;-74
2023/01/04 15:11:12;;;;;;;0.70;0.68;;;;;;;10.96;72.73;101033.47;5034825;28;20465;-75
2023/01/04 15:13:37;;;;;;;1.30;0.60;;;;;;;10.98;72.71;101033.22;5059120;28;20807;-75
2023/01/04 15:16:03;;;;;;;3.53;0.40;;;;;;;10.99;72.57;101034.91;5071984;28;20412;-74
2023/01/04 15:18:29;;;;;;;2.03;0.40;;;;;;;10.96;72.60;101030.78;5037213;28;20508;-74
2023/01/04 15:20:55;;;;;;;0.77;0.63;;;;;;;10.75;73.25;101036.72;5024839;28;20460;-75
2023/01/04 15:23:20;;;;;;;1.80;0.47;;;;;;;10.71;73.61;101032.81;5071967;28;20380;-74
2023/01/04 15:25:46;;;;;;;1.80;0.47;;;;;;;10.68;73.63;101046.84;5032426;28;20386;-74
2023/01/04 15:28:12;;;;;;;1.00;0.60;;;;;;;10.65;73.69;101048.13;5065665;28;20731;-74
2023/01/04 15:30:42;;;;;;;1.60;0.77;;;;;;;10.72;73.73;101056.16;5039666;28;20497;-74
2023/01/04 15:33:07;;;;;;;0.30;0.30;;;;;;;10.85;73.09;101045.13;5071591;28;20731;-75
2023/01/04 15:35:33;;;;;;;0.57;0.40;;;;;;;10.89;73.06;101051.75;5071838;28;20870;-75
2023/01/04 15:37:58;;;;;;;1.40;0.50;;;;;;;10.93;72.68;101051.03;5056318;28;20822;-74
2023/01/04 15:40:23;;;;;;;1.75;0.38;;;;;;;10.94;72.64;101035.59;5040555;28;20456;-75
2023/01/04 15:42:57;;;;;;;1.30;0.50;;;;;;;10.95;72.50;101026.41;5036218;28;20403;-78
2023/01/04 15:45:24;;;;;;;1.25;0.50;;;;;;;10.98;72.69;101031.34;5037164;28;20431;-78
2023/01/04 15:47:50;;;;;;;1.40;0.60;;;;;;;10.99;72.69;101019.44;5048305;28;20894;-76
2023/01/04 15:50:17;;;;;;;0.30;0.30;;;;;;;11.01;73.34;101030.88;5049538;28;20776;-76
2023/01/04 15:52:42;;;;;;;0.90;0.40;;;;;;;11.01;73.76;101008.34;5048655;28;20483;-75
2023/01/04 15:55:08;;;;;;;1.50;0.40;;;;;;;10.98;74.23;101009.66;5069076;28;20491;-77
2023/01/04 15:57:33;;;;;;;0.82;0.40;;;;;;;10.95;74.58;101004.69;5055321;28;20399;-76
2023/01/04 15:59:59;;;;;;;0.80;0.30;;;;;;;10.92;74.82;101005.16;5033770;28;20414;-77
2023/01/04 16:02:24;;;;;;;2.22;0.40;;;;;;;10.88;75.25;101020.25;5068419;28;20518;-76
2023/01/04 16:04:49;;;;;;;1.67;0.83;;;;;;;10.89;75.16;101013.78;5043607;28;20439;-76
2023/01/04 16:07:16;;;;;;;4.20;3.67;;;;;;;10.89;74.90;101017.31;5059385;28;20454;-77
2023/01/04 16:09:41;;;;;;;1.27;1.17;;;;;;;10.88;75.39;101018.38;5054327;28;20415;-77
2023/01/04 16:14:50;;;;;;;0.47;0.47;;;;;;;10.89;75.45;100992.09;5049865;28;20450;-74
2023/01/04 16:17:15;;;;;;;1.30;0.40;;;;;;;10.91;75.23;101004.34;5046826;28;20407;-76
2023/01/04 16:19:41;;;;;;;1.38;0.98;;;;;;;10.97;74.95;100999.84;5043066;28;20468;-77
2023/01/04 16:22:06;;;;;;;0.67;0.67;;;;;;;11.07;74.68;100986.53;5056117;28;20406;-77
2023/01/04 16:24:31;;;;;;;0.77;0.53;;;;;;;11.07;74.59;100997.38;5046445;28;20830;-78
2023/01/04 16:26:57;;;;;;;0.57;0.50;;;;;;;11.11;74.68;101001.28;5057807;28;20416;-77
2023/01/04 16:29:23;;;;;;;1.13;1.07;;;;;;;11.10;75.14;100988.78;5040017;28;20484;-77
2023/01/04 16:31:52;;;;;;;4.95;3.42;;;;;;;11.08;75.52;101007.19;5060606;28;20790;-77
2023/01/04 16:34:26;;;;;;;1.83;0.73;;;;;;;11.08;75.86;100998.22;5030212;28;20416;-77
2023/01/04 16:37:18;;;;;;;0.85;0.80;;;;;;;11.04;76.21;100999.75;5041576;28;20409;-77
2023/01/04 16:40:11;;;;;;;4.38;1.80;;;;;;;11.01;76.28;101005.63;5048456;28;20424;-79
2023/01/04 16:42:53;;;;;;;2.80;0.70;;;;;;;11.01;76.38;100997.50;5040794;28;20397;-77
2023/01/04 16:45:22;;;;;;;1.88;0.70;;;;;;;10.98;76.87;101012.38;5052797;28;20923;-77
2023/01/04 16:47:52;;;;;;;0.80;0.80;;;;;;;11.03;76.85;101017.09;5058650;28;20407;-78
2023/01/04 16:50:19;;;;;;;0.50;0.50;;;;;;;10.98;76.88;101012.38;5051382;28;20985;-77
2023/01/04 16:53:04;;;;;;;0.60;0.60;;;;;;;10.95;77.81;101010.13;5059013;28;20397;-79
2023/01/04 16:55:38;;;;;;;1.35;0.60;;;;;;;10.89;78.61;101000.22;5031885;28;20408;-77
2023/01/04 16:58:04;;;;;;;0.70;0.40;;;;;;;10.85;79.00;101001.72;5031012;28;20502;-76
2023/01/04 17:00:33;;;;;;;0.65;0.40;;;;;;;10.84;79.50;101006.31;5047401;28;20459;-76
2023/01/04 17:03:02;;;;;;;0.70;0.70;;;;;;;10.78;79.95;101017.28;5059104;28;20394;-76
2023/01/04 17:05:30;;;;;;;0.75;0.32;;;;;;;10.77;80.69;101000.19;5024055;28;20495;-77
2023/01/04 17:08:00;;;;;;;0.38;0.38;;;;;;;10.72;81.38;100996.53;5051544;28;20500;-76
2023/01/04 17:10:28;;;;;;;0.50;0.50;;;;;;;10.66;81.72;101003.72;5056526;28;20880;-77
2023/01/04 17:12:56;;;;;;;0.70;0.50;;;;;;;10.63;82.01;101017.72;5047513;28;20878;-77
2023/01/04 17:15:42;;;;;;;3.25;0.77;;;;;;;10.62;82.25;101002.53;5053767;28;20435;-76
2023/01/04 17:18:13;;;;;;;1.40;0.68;;;;;;;10.59;82.60;101004.88;5059510;28;20406;-77
2023/01/04 17:20:47;;;;;;;0.88;0.60;;;;;;;10.61;82.61;101022.53;5062932;28;20757;-76
2023/01/04 17:23:17;;;;;;;2.10;0.60;;;;;;;10.60;82.61;101011.94;5062766;28;20490;-78
2023/01/04 17:25:47;;;;;;;1.10;0.75;;;;;;;10.61;82.52;101002.72;5048952;28;20401;-77
2023/01/04 17:28:20;;;;;;;1.45;1.45;;;;;;;10.61;82.42;101000.03;5045790;28;20401;-77
2023/01/04 17:30:49;;;;;;;0.55;0.55;;;;;;;10.59;82.35;101004.88;5044703;28;20881;-75
2023/01/04 17:33:18;;;;;;;3.72;1.55;;;;;;;10.59;82.71;101000.28;5052816;28;20396;-76
2023/01/04 17:35:47;;;;;;;0.90;0.60;;;;;;;10.56;82.85;100994.50;5065597;28;20472;-76
2023/01/04 17:38:15;;;;;;;2.13;0.98;;;;;;;10.56;83.12;100980.94;5069038;28;20414;-76
2023/01/04 17:40:42;;;;;;;2.25;0.80;;;;;;;10.51;83.48;100992.47;5034273;28;20411;-76
2023/01/04 17:43:08;;;;;;;0.80;0.80;;;;;;;10.47;84.16;100985.88;5047439;28;20418;-78
2023/01/04 17:45:36;;;;;;;0.77;0.70;;;;;;;10.43;84.27;100990.09;5058301;28;20879;-77
2023/01/04 17:48:03;;;;;;;0.80;0.60;;;;;;;10.39;84.38;100989.72;5045158;28;20421;-77
2023/01/04 17:50:32;;;;;;;0.73;0.50;;;;;;;10.37;85.24;100999.16;5038880;28;20428;-76
2023/01/04 17:53:03;;;;;;;2.00;0.77;;;;;;;10.36;85.37;100989.38;5053215;28;20427;-75
2023/01/04 17:55:30;;;;;;;0.63;0.45;;;;;;;10.40;85.50;100985.13;5052328;28;20403;-73
2023/01/04 17:57:58;;;;;;;1.60;0.50;;;;;;;10.38;85.65;100976.41;5039659;28;20454;-76
2023/01/04 18:00:25;;;;;;;1.63;0.80;;;;;;;10.38;86.24;100989.94;5026512;28;20754;-76
2023/01/04 18:03:02;;;;;;;3.10;1.02;;;;;;;10.33;86.80;100979.81;5032695;28;20747;-80
2023/01/04 18:05:45;;;;;;;2.38;1.20;;;;;;;10.33;87.19;100979.00;5055743;28;20399;-76
2023/01/04 18:08:18;;;;;;;1.70;0.73;;;;;;;10.23;87.86;100976.00;5058686;28;20411;-76
2023/01/04 18:10:49;;;;;;;1.98;0.70;;;;;;;10.24;87.92;100973.06;5046542;28;20406;-76
2023/01/04 18:13:18;;;;;;;1.02;0.80;;;;;;;10.23;88.19;100982.25;5068686;28;20466;-76
2023/01/04 18:15:48;;;;;;;3.00;1.00;;;;;;;10.16;88.37;100976.09;5040039;28;20976;-77
2023/01/04 18:18:17;;;;;;;1.88;0.70;;;;;;;10.15;88.92;100977.16;5066261;28;20892;-76
2023/01/04 18:20:57;;;;;;;1.85;1.05;;;;;;;10.15;88.82;100970.91;5047395;28;20413;-77
2023/01/04 18:23:33;;;;;;;2.25;0.90;;;;;;;10.17;88.58;100968.81;5051784;28;20547;-75
2023/01/04 18:26:03;;;;;;;2.83;0.95;;;;;;;10.17;88.96;100969.63;5028808;28;20419;-76
2023/01/04 18:28:32;;;;;;;1.95;1.00;;;;;;;10.14;88.98;100966.56;5050530;28;20437;-76
2023/01/04 18:31:07;;;;;;;1.52;1.02;;;;;;;10.16;89.29;100975.28;5052398;28;20442;-77
2023/01/04 18:33:35;;;;;;;2.25;1.10;;;;;;;10.12;89.29;100965.91;5059483;28;20381;-76
2023/01/04 18:36:07;;;;;;;1.70;0.88;;;;;;;10.11;89.52;100965.06;5053106;28;20485;-76
2023/01/04 18:38:39;;;;;;;0.98;0.82;;;;;;;10.16;89.30;100977.97;5039631;28;20451;-76
2023/01/04 18:41:08;;;;;;;1.00;0.85;;;;;;;10.20;89.08;100974.59;5051298;28;20406;-77
2023/01/04 18:43:34;;;;;;;1.95;0.70;;;;;;;10.17;89.23;100975.06;5049343;28;20411;-79
2023/01/04 18:46:11;;;;;;;0.63;0.60;;;;;;;10.17;89.36;100982.34;5063857;28;20403;-77
2023/01/04 18:48:51;;;;;;;1.08;0.80;;;;;;;10.16;89.64;100977.97;5057975;28;20394;-77
2023/01/04 18:51:20;;;;;;;1.88;0.70;;;;;;;10.12;89.55;100982.16;5043628;28;20400;-78
2023/01/04 18:53:59;;;;;;;2.73;0.90;;;;;;;10.14;89.71;100975.47;5044042;28;20423;-78
2023/01/04 18:56:48;;;;;;;0.70;0.70;;;;;;;10.13;89.55;100987.38;5058470;28;20906;-77
2023/01/04 18:59:25;;;;;;;1.52;0.60;;;;;;;10.20;89.28;100985.44;5059585;28;20507;-77
2023/01/04 19:02:06;;;;;;;1.20;0.52;;;;;;;10.17;89.32;100980.47;5041945;28;20398;-77
2023/01/04 19:04:38;;;;;;;0.60;0.60;;;;;;;10.20;89.27;100981.88;5042214;28;20483;-78
2023/01/04 19:07:31;;;;;;;1.00;0.60;;;;;;;10.22;88.98;100969.75;5055227;28;20458;-80
2023/01/04 19:10:02;;;;;;;1.77;0.75;;;;;;;10.24;88.99;100969.53;5053580;28;20417;-77
2023/01/04 19:12:29;;;;;;;1.00;0.70;;;;;;;10.27;88.33;100963.66;5035114;28;20524;-77
2023/01/04 19:14:55;;;;;;;1.05;1.02;;;;;;;10.34;87.90;100967.09;5036704;28;20437;-77
2023/01/04 19:17:29;;;;;;;1.23;1.00;;;;;;;10.36;87.59;100946.84;5053695;28;20405;-77
2023/01/04 19:20:00;;;;;;;1.05;0.70;;;;;;;10.38;87.52;100960.97;5035937;28;20484;-78
2023/01/04 19:22:34;;;;;;;1.92;0.80;;;;;;;10.40;87.31;100964.31;5034546;28;20772;-77
2023/01/04 19:25:02;;;;;;;2.70;0.60;;;;;;;10.38;87.36;100960.97;5048882;28;20967;-77
2023/01/04 19:27:39;;;;;;;2.00;0.60;;;;;;;10.40;87.22;100960.75;5017732;28;20428;-77
2023/01/04 19:30:23;;;;;;;1.23;0.93;;;;;;;10.47;86.92;100963.38;5047050;28;20486;-77
2023/01/04 19:32:52;;;;;;;3.30;0.90;;;;;;;10.48;86.50;100973.13;5040875;28;20488;-77
2023/01/04 19:35:25;;;;;;;1.20;0.70;;;;;;;10.53;86.26;100973.28;5044648;28;20400;-77
2023/01/04 19:38:12;;;;;;;1.02;0.63;;;;;;;10.54;86.12;100973.03;5020655;28;20409;-77
2023/01/04 19:41:03;;;;;;;2.00;0.88;;;;;;;10.57;86.06;100971.75;5050127;28;20395;-77
2023/01/04 19:43:43;;;;;;;1.40;0.68;;;;;;;10.60;85.91;100971.28;5048320;28;20408;-79
2023/01/04 19:46:30;;;;;;;1.50;0.75;;;;;;;10.61;85.48;100962.09;5038919;28;20715;-79
2023/01/04 19:49:16;;;;;;;1.42;0.60;;;;;;;10.69;85.10;100970.72;5039121;28;20409;-80
2023/01/04 19:51:59;;;;;;;1.48;0.68;;;;;;;10.72;84.98;100982.97;5034951;28;20890;-79
2023/01/04 19:57:24;;;;;;;0.80;0.63;;;;;;;10.81;84.13;100976.16;5033464;28;20414;-78
2023/01/04 20:00:00;;;;;;;2.75;0.52;;;;;;;10.82;83.81;100975.09;5021837;28;20450;-80
2023/01/04 20:02:36;;;;;;;2.83;0.68;;;;;;;10.85;83.58;100985.47;5031531;28;20407;-80
2023/01/04 20:05:28;;;;;;;1.70;1.50;;;;;;;10.89;83.19;100971.22;5032767;28;20401;-80
2023/01/04 20:08:20;;;;;;;3.90;1.95;;;;;;;10.89;83.14;100975.81;5012053;28;20400;-80
2023/01/04 20:11:02;;;;;;;1.05;0.95;;;;;;;10.97;82.68;100967.31;5029802;28;20460;-80
2023/01/04 20:13:35;;;;;;;2.13;1.60;;;;;;;10.97;82.79;100963.78;5022627;28;20469;-79
2023/01/04 20:16:15;;;;;;;4.25;1.95;;;;;;;10.98;82.57;100968.97;5032980;28;20417;-79
2023/01/04 20:18:54;;;;;;;4.28;1.92;;;;;;;11.00;82.40;100966.84;5034559;28;20429;-79
2023/01/04 20:21:23;;;;;;;1.50;1.10;;;;;;;11.04;82.39;100962.59;5026632;28;20516;-79
2023/01/04 20:23:55;;;;;;;1.10;0.60;;;;;;;10.99;82.59;100961.66;5023590;28;21015;-79
2023/01/04 20:26:23;;;;;;;0.77;0.60;;;;;;;10.96;82.71;100973.00;5043431;28;20403;-78
2023/01/04 20:28:51;;;;;;;0.95;0.80;;;;;;;10.97;82.50;100970.03;5030011;28;20409;-79
2023/01/04 20:31:19;;;;;;;2.10;0.57;;;;;;;11.01;82.33;100981.22;5046080;28;20395;-79
2023/01/04 20:34:02;;;;;;;0.40;0.40;;;;;;;11.18;81.39;100979.47;5048957;28;20401;-79
2023/01/04 20:36:33;;;;;;;0.38;0.38;;;;;;;11.09;81.81;100984.44;5020001;28;20403;-79
2023/01/04 20:39:23;;;;;;;1.30;0.60;;;;;;;11.12;81.88;100992.09;5020610;28;20766;-79
2023/01/04 20:45:41;;;;;;;0.98;0.93;;;;;;;11.17;81.55;101013.09;5060117;28;21254;-79
2023/01/04 20:48:29;;;;;;;0.70;0.70;;;;;;;11.27;80.79;101008.72;5031837;28;20430;-79
2023/01/04 20:51:37;;;;;;;0.60;0.40;;;;;;;11.28;80.97;101007.69;5050033;28;20483;-80
2023/01/04 20:54:28;;;;;;;0.45;0.35;;;;;;;11.31;80.91;101017.22;5056630;28;20950;-78
2023/01/04 20:57:07;;;;;;;0.73;0.60;;;;;;;11.23;81.28;101009.44;5057093;28;20394;-79
2023/01/04 21:07:03;;;;;;;0.70;0.70;;;;;;;11.25;81.02;101002.72;5040529;28;20616;-81
2023/01/04 21:17:10;;;;;;;0.85;0.40;;;;;;;11.31;80.59;100996.34;5055743;28;20399;-78
2023/01/04 21:34:10;;;;;;;1.17;1.08;;;;;;;11.48;80.56;100974.75;5015780;28;20435;-78
2023/01/04 21:40:22;;;;;;;0.63;0.47;;;;;;;11.43;80.83;100972.72;5010496;28;20424;-78
2023/01/04 21:42:55;;;;;;;1.63;0.57;;;;;;;11.46;80.85;100960.56;5015446;28;20411;-78
2023/01/04 21:45:38;;;;;;;0.70;0.60;;;;;;;11.50;80.57;100950.88;5008596;28;20423;-78
2023/01/04 21:48:07;;;;;;;0.30;0.30;;;;;;;11.59;80.36;100962.22;5013016;28;20452;-78
2023/01/04 21:51:02;;;;;;;2.80;0.90;;;;;;;11.60;80.23;100955.69;5018943;28;20859;-79
2023/01/04 21:53:42;;;;;;;0.65;0.57;;;;;;;11.56;79.96;100949.13;5009319;28;20810;-79
2023/01/04 21:56:16;;;;;;;0.55;0.40;;;;;;;11.53;80.14;100941.44;5014396;28;20409;-79
2023/01/04 21:58:47;;;;;;;0.50;0.40;;;;;;;11.52;80.20;100937.91;5000806;28;20457;-78
2023/01/04 22:01:20;;;;;;;0.50;0.50;;;;;;;11.69;79.51;100941.50;5007119;28;20491;-78
2023/01/04 22:03:49;;;;;;;1.10;0.40;;;;;;;11.63;79.81;100926.19;5005217;28;20917;-78
2023/01/04 22:06:21;;;;;;;1.20;0.88;;;;;;;11.70;79.72;100931.47;5018710;28;20401;-78
2023/01/04 22:08:55;;;;;;;1.02;0.75;;;;;;;11.74;79.30;100932.69;4998764;28;20417;-77
2023/01/04 22:11:23;;;;;;;0.60;0.40;;;;;;;11.74;79.41;100925.38;5000744;28;20491;-77
2023/01/04 22:13:51;;;;;;;0.68;0.55;;;;;;;11.78;79.39;100923.84;5001908;28;20442;-77
2023/01/04 22:16:23;;;;;;;0.50;0.50;;;;;;;11.73;79.72;100931.84;5011703;28;20894;-77
2023/01/04 22:18:54;;;;;;;0.40;0.40;;;;;;;11.70;79.87;100917.91;5014583;28;20427;-78
2023/01/04 22:21:29;;;;;;;0.30;0.28;;;;;;;11.73;79.79;100915.56;5036010;28;20407;-78
2023/01/04 22:23:58;;;;;;;0.22;0.20;;;;;;;11.75;79.95;100896.34;5054622;28;20398;-78
2023/01/04 22:26:34;;;;;;;0.22;0.22;;;;;;;11.74;79.88;100917.22;5061317;28;20480;-77
2023/01/04 22:29:19;;;;;;;0.52;0.17;;;;;;;11.73;79.80;100914.75;5038436;28;20409;-77
2023/01/04 22:31:58;;;;;;;1.60;0.50;;;;;;;11.75;79.77;100893.63;5037727;28;20896;-78
2023/01/04 22:34:23;;;;;;;0.38;0.25;;;;;;;11.78;79.62;100904.00;5053433;28;20393;-77
2023/01/04 22:36:54;;;;;;;0.32;0.20;;;;;;;11.76;79.85;100896.06;5042851;28;20417;-77
2023/01/04 22:39:24;;;;;;;1.30;0.30;;;;;;;11.81;79.94;100887.22;5054029;28;20506;-77
2023/01/04 22:41:54;;;;;;;0.20;0.20;;;;;;;11.74;80.34;100890.06;5051696;28;20413;-77
2023/01/04 22:44:21;;;;;;;0.30;0.30;;;;;;;11.67;80.90;100874.94;5038786;28;20493;-77
2023/01/04 22:46:47;;;;;;;0.25;0.25;;;;;;;11.64;81.20;100878.97;5034056;28;20395;-77
2023/01/04 22:49:12;;;;;;;0.38;0.38;;;;;;;11.71;80.76;100868.84;5049937;28;21074;-78
2023/01/04 22:51:40;;;;;;;0.30;0.30;;;;;;;11.71;81.10;100877.00;5036489;28;20797;-77
2023/01/04 22:54:07;;;;;;;1.00;0.20;;;;;;;11.62;81.42;100875.69;5051116;28;20401;-78
2023/01/04 22:56:35;;;;;;;0.60;0.38;;;;;;;11.51;82.30;100884.69;5027871;28;20828;-77
2023/01/04 22:59:05;;;;;;;0.32;0.32;;;;;;;11.45;83.01;100878.34;5033778;28;20429;-77
2023/01/04 23:01:34;;;;;;;0.20;0.20;;;;;;;11.42;83.41;100897.00;5061739;28;20397;-77
2023/01/04 23:04:06;;;;;;;0.22;0.22;;;;;;;11.37;84.16;100903.13;5035520;28;20401;-78
2023/01/04 23:06:37;;;;;;;0.40;0.40;;;;;;;11.38;84.75;100898.53;5036435;28;20397;-77
2023/01/04 23:09:07;;;;;;;0.30;0.30;;;;;;;11.37;85.18;100900.41;5054741;28;20400;-77
2023/01/04 23:11:36;;;;;;;0.20;0.20;;;;;;;11.34;85.68;100894.63;5038697;28;20476;-77
2023/01/04 23:14:09;;;;;;;0.20;0.20;;;;;;;11.44;85.40;100892.97;5042260;28;20401;-77
2023/01/04 23:16:35;;;;;;;0.35;0.30;;;;;;;11.42;85.34;100889.69;5042434;28;20411;-77
2023/01/04 23:19:09;;;;;;;0.30;0.17;;;;;;;11.43;85.10;100904.06;5059565;28;20892;-77
2023/01/04 23:21:54;;;;;;;0.10;0.10;;;;;;;11.45;85.37;100885.66;5008202;28;20415;-77
2023/01/04 23:24:27;;;;;;;0.60;0.47;;;;;;;11.46;85.12;100893.53;5031566;28;20404;-77
2023/01/04 23:27:04;;;;;;;0.10;0.10;;;;;;;11.46;85.27;100882.69;5051171;28;20415;-78
2023/01/04 23:29:30;;;;;;;0.20;0.20;;;;;;;11.45;85.15;100881.06;5043608;28;20398;-77
2023/01/04 23:32:00;;;;;;;0.22;0.17;;;;;;;11.45;85.42;100900.06;5037444;28;20394;-77
2023/01/04 23:35:04;;;;;;;0.30;0.20;;;;;;;11.42;85.56;100888.84;5053835;28;20442;-78
2023/01/04 23:42:03;;;;;;;0.73;0.10;;;;;;;11.43;86.18;100894.03;5058448;28;20388;-77
2023/01/04 23:49:01;;;;;;;0.30;0.30;;;;;;;11.39;86.32;100875.78;5037456;28;20407;-77
2023/01/04 23:51:53;;;;;;;0.30;0.13;;;;;;;11.33;86.76;100863.13;5018457;28;20424;-77
2023/01/04 23:54:57;;;;;;;0.37;0.20;;;;;;;11.36;86.76;100893.31;5010810;28;20403;-77
